createdAt,value
2022-09-12T00:14:05.468Z,19.43
2022-09-12T00:34:05.492Z,19.37
2022-09-12T00:54:05.411Z,19.43
2022-09-12T01:14:05.430Z,19.25
2022-09-12T01:34:05.444Z,19.25
2022-09-12T01:54:05.364Z,19.25
2022-09-12T02:14:05.386Z,19.12
2022-09-12T02:34:05.417Z,19.06
2022-09-12T02:54:05.369Z,19.12
2022-09-12T03:14:05.343Z,19.25
2022-09-12T03:34:05.294Z,19.12
2022-09-12T03:54:05.280Z,19.12
2022-09-12T04:14:05.300Z,19.06
2022-09-12T04:34:05.239Z,19.06
2022-09-12T04:54:05.243Z,19.12
2022-09-12T05:14:05.261Z,18.87
2022-09-12T05:34:05.180Z,18.93
2022-09-12T05:54:05.209Z,18.87
2022-09-12T06:14:05.128Z,18.87
2022-09-12T06:34:05.130Z,18.93
2022-09-12T06:54:05.167Z,18.81
2022-09-12T07:14:05.126Z,18.93
2022-09-12T07:34:05.113Z,19.06
2022-09-12T07:54:05.014Z,19.18
2022-09-12T08:14:05.052Z,19.25
2022-09-12T08:34:04.961Z,19.31
2022-09-12T08:54:05.004Z,19.37
2022-09-12T09:14:04.999Z,19.25
2022-09-12T09:34:04.924Z,19.25
2022-09-12T09:54:04.942Z,19.18
2022-09-12T10:14:04.863Z,19.25
2022-09-12T10:34:04.891Z,19.68
2022-09-12T10:54:04.854Z,19.50
2022-09-12T11:14:04.985Z,19.62
2022-09-12T11:34:04.881Z,19.81
2022-09-12T11:54:04.676Z,19.75
2022-09-12T12:14:04.676Z,19.81
2022-09-12T12:34:04.699Z,19.87
2022-09-12T12:54:04.634Z,19.81
2022-09-12T13:14:04.597Z,19.81
2022-09-12T13:34:04.588Z,19.87
2022-09-12T13:54:04.513Z,19.81
2022-09-12T14:14:04.580Z,19.93
2022-09-12T14:34:04.471Z,19.93
2022-09-12T14:54:04.546Z,19.93
2022-09-12T15:14:04.463Z,19.93
2022-09-12T15:34:04.357Z,19.93
2022-09-12T15:54:04.390Z,19.93
2022-09-12T16:14:04.324Z,20.00
2022-09-12T16:34:04.285Z,19.87
2022-09-12T16:54:04.293Z,19.87
2022-09-12T17:14:04.217Z,20.06
2022-09-12T17:34:04.282Z,19.87
2022-09-12T17:54:04.215Z,19.87
2022-09-12T18:14:04.258Z,20.00
2022-09-12T18:34:04.131Z,19.81
2022-09-12T18:54:04.184Z,19.81
2022-09-12T19:14:04.058Z,19.75
2022-09-12T19:34:04.124Z,19.75
2022-09-12T19:54:04.006Z,19.75
2022-09-12T20:14:04.019Z,19.62
2022-09-12T20:34:03.975Z,19.62
2022-09-12T20:54:03.975Z,19.75
2022-09-12T21:14:03.985Z,19.75
2022-09-12T21:34:03.931Z,19.75
2022-09-12T22:14:03.966Z,19.62
2022-09-12T22:34:03.872Z,19.62
2022-09-12T22:54:03.803Z,19.56
2022-09-12T23:14:03.844Z,19.50
2022-09-12T23:34:03.922Z,19.50
2022-09-12T23:54:03.782Z,19.50
